sensor_id;sensor_type;location;lat;lon;timestamp;P1;durP1;ratioP1;P2;durP2;ratioP2
70729;SDS011;58315;53.336;55.932;2023-02-28T00:00:32;7.95;;;4.07;;
70729;SDS011;58315;53.336;55.932;2023-02-28T00:02:59;8.52;;;3.83;;
70729;SDS011;58315;53.336;55.932;2023-02-28T00:05:25;8.77;;;4.47;;
70729;SDS011;58315;53.336;55.932;2023-02-28T00:07:53;7.65;;;3.78;;
70729;SDS011;58315;53.336;55.932;2023-02-28T00:10:21;9.57;;;3.70;;
70729;SDS011;58315;53.336;55.932;2023-02-28T00:12:52;8.45;;;3.90;;
70729;SDS011;58315;53.336;55.932;2023-02-28T00:15:40;9.38;;;4.30;;
70729;SDS011;58315;53.336;55.932;2023-02-28T00:18:07;10.20;;;4.03;;
70729;SDS011;58315;53.336;55.932;2023-02-28T00:20:32;8.77;;;4.18;;
70729;SDS011;58315;53.336;55.932;2023-02-28T00:22:59;8.43;;;3.90;;
70729;SDS011;58315;53.336;55.932;2023-02-28T00:25:24;6.68;;;3.80;;
70729;SDS011;58315;53.336;55.932;2023-02-28T00:27:50;9.13;;;4.35;;
70729;SDS011;58315;53.336;55.932;2023-02-28T00:30:17;7.13;;;4.20;;
70729;SDS011;58315;53.336;55.932;2023-02-28T00:32:45;8.43;;;4.18;;
70729;SDS011;58315;53.336;55.932;2023-02-28T00:35:11;7.53;;;3.20;;
70729;SDS011;58315;53.336;55.932;2023-02-28T00:37:40;7.18;;;3.22;;
70729;SDS011;58315;53.336;55.932;2023-02-28T00:40:07;7.90;;;3.75;;
70729;SDS011;58315;53.336;55.932;2023-02-28T00:42:35;7.22;;;4.03;;
70729;SDS011;58315;53.336;55.932;2023-02-28T00:45:01;6.60;;;3.53;;
70729;SDS011;58315;53.336;55.932;2023-02-28T00:47:30;8.18;;;3.95;;
70729;SDS011;58315;53.336;55.932;2023-02-28T00:49:57;7.18;;;3.40;;
70729;SDS011;58315;53.336;55.932;2023-02-28T00:52:23;7.15;;;3.63;;
70729;SDS011;58315;53.336;55.932;2023-02-28T00:54:49;6.32;;;3.47;;
70729;SDS011;58315;53.336;55.932;2023-02-28T00:57:14;8.85;;;3.75;;
70729;SDS011;58315;53.336;55.932;2023-02-28T00:59:40;5.97;;;2.85;;
70729;SDS011;58315;53.336;55.932;2023-02-28T01:02:06;5.72;;;3.15;;
70729;SDS011;58315;53.336;55.932;2023-02-28T01:04:32;9.82;;;4.43;;
70729;SDS011;58315;53.336;55.932;2023-02-28T01:07:00;13.13;;;3.97;;
70729;SDS011;58315;53.336;55.932;2023-02-28T01:09:27;10.77;;;3.65;;
70729;SDS011;58315;53.336;55.932;2023-02-28T01:11:53;6.95;;;3.08;;
70729;SDS011;58315;53.336;55.932;2023-02-28T01:14:38;8.10;;;3.90;;
70729;SDS011;58315;53.336;55.932;2023-02-28T01:17:04;9.65;;;4.57;;
70729;SDS011;58315;53.336;55.932;2023-02-28T01:19:31;9.68;;;4.63;;
70729;SDS011;58315;53.336;55.932;2023-02-28T01:22:00;9.48;;;4.32;;
70729;SDS011;58315;53.336;55.932;2023-02-28T01:27:11;18.13;;;4.70;;
70729;SDS011;58315;53.336;55.932;2023-02-28T01:29:38;8.77;;;4.53;;
70729;SDS011;58315;53.336;55.932;2023-02-28T01:32:03;9.13;;;4.15;;
70729;SDS011;58315;53.336;55.932;2023-02-28T01:34:30;12.30;;;5.22;;
70729;SDS011;58315;53.336;55.932;2023-02-28T01:36:56;11.15;;;4.80;;
70729;SDS011;58315;53.336;55.932;2023-02-28T01:39:24;11.65;;;5.07;;
70729;SDS011;58315;53.336;55.932;2023-02-28T01:41:52;12.75;;;5.60;;
70729;SDS011;58315;53.336;55.932;2023-02-28T01:47:26;15.32;;;6.60;;
70729;SDS011;58315;53.336;55.932;2023-02-28T01:49:56;18.85;;;5.82;;
70729;SDS011;58315;53.336;55.932;2023-02-28T01:52:23;15.60;;;6.80;;
70729;SDS011;58315;53.336;55.932;2023-02-28T01:54:54;13.77;;;5.38;;
70729;SDS011;58315;53.336;55.932;2023-02-28T01:57:23;14.68;;;6.78;;
70729;SDS011;58315;53.336;55.932;2023-02-28T01:59:58;16.85;;;7.10;;
70729;SDS011;58315;53.336;55.932;2023-02-28T02:02:46;13.20;;;6.85;;
70729;SDS011;58315;53.336;55.932;2023-02-28T02:05:16;13.85;;;6.03;;
70729;SDS011;58315;53.336;55.932;2023-02-28T02:07:45;16.42;;;7.13;;
70729;SDS011;58315;53.336;55.932;2023-02-28T02:10:17;15.13;;;7.10;;
70729;SDS011;58315;53.336;55.932;2023-02-28T02:15:53;20.45;;;7.28;;
70729;SDS011;58315;53.336;55.932;2023-02-28T02:24:03;18.05;;;6.53;;
70729;SDS011;58315;53.336;55.932;2023-02-28T02:35:01;16.23;;;7.25;;
70729;SDS011;58315;53.336;55.932;2023-02-28T02:42:59;14.65;;;5.97;;
70729;SDS011;58315;53.336;55.932;2023-02-28T02:45:40;13.25;;;6.22;;
70729;SDS011;58315;53.336;55.932;2023-02-28T02:48:13;12.30;;;5.85;;
70729;SDS011;58315;53.336;55.932;2023-02-28T02:50:45;12.25;;;5.38;;
70729;SDS011;58315;53.336;55.932;2023-02-28T02:53:15;14.70;;;5.75;;
70729;SDS011;58315;53.336;55.932;2023-02-28T02:55:47;14.80;;;6.20;;
70729;SDS011;58315;53.336;55.932;2023-02-28T02:58:24;13.20;;;5.97;;
70729;SDS011;58315;53.336;55.932;2023-02-28T03:00:58;14.95;;;6.45;;
70729;SDS011;58315;53.336;55.932;2023-02-28T03:03:27;18.00;;;7.13;;
70729;SDS011;58315;53.336;55.932;2023-02-28T03:05:57;16.92;;;6.90;;
70729;SDS011;58315;53.336;55.932;2023-02-28T03:08:25;15.23;;;6.13;;
70729;SDS011;58315;53.336;55.932;2023-02-28T03:11:13;17.63;;;6.57;;
70729;SDS011;58315;53.336;55.932;2023-02-28T03:13:44;18.33;;;6.80;;
70729;SDS011;58315;53.336;55.932;2023-02-28T03:16:28;16.33;;;6.93;;
70729;SDS011;58315;53.336;55.932;2023-02-28T03:27:21;16.02;;;6.80;;
70729;SDS011;58315;53.336;55.932;2023-02-28T03:29:57;17.75;;;7.40;;
70729;SDS011;58315;53.336;55.932;2023-02-28T03:32:40;18.67;;;7.65;;
70729;SDS011;58315;53.336;55.932;2023-02-28T03:37:48;22.13;;;8.73;;
70729;SDS011;58315;53.336;55.932;2023-02-28T03:40:19;18.58;;;9.40;;
70729;SDS011;58315;53.336;55.932;2023-02-28T03:42:49;21.05;;;9.20;;
70729;SDS011;58315;53.336;55.932;2023-02-28T03:45:39;16.25;;;7.80;;
70729;SDS011;58315;53.336;55.932;2023-02-28T03:50:48;18.98;;;8.38;;
70729;SDS011;58315;53.336;55.932;2023-02-28T03:53:27;18.38;;;8.93;;
70729;SDS011;58315;53.336;55.932;2023-02-28T03:55:59;16.80;;;8.75;;
70729;SDS011;58315;53.336;55.932;2023-02-28T04:01:25;19.75;;;9.05;;
70729;SDS011;58315;53.336;55.932;2023-02-28T04:03:55;20.58;;;9.68;;
70729;SDS011;58315;53.336;55.932;2023-02-28T04:06:21;19.77;;;9.13;;
70729;SDS011;58315;53.336;55.932;2023-02-28T04:08:48;20.50;;;9.13;;
70729;SDS011;58315;53.336;55.932;2023-02-28T04:11:22;20.20;;;9.25;;
70729;SDS011;58315;53.336;55.932;2023-02-28T04:13:54;20.67;;;8.23;;
70729;SDS011;58315;53.336;55.932;2023-02-28T04:16:20;21.23;;;10.00;;
70729;SDS011;58315;53.336;55.932;2023-02-28T04:18:47;27.70;;;11.18;;
70729;SDS011;58315;53.336;55.932;2023-02-28T04:21:13;33.42;;;12.98;;
70729;SDS011;58315;53.336;55.932;2023-02-28T04:23:39;41.25;;;12.27;;
70729;SDS011;58315;53.336;55.932;2023-02-28T04:26:05;27.75;;;11.05;;
70729;SDS011;58315;53.336;55.932;2023-02-28T04:28:32;30.58;;;10.70;;
70729;SDS011;58315;53.336;55.932;2023-02-28T04:30:59;23.77;;;10.73;;
70729;SDS011;58315;53.336;55.932;2023-02-28T04:33:28;23.60;;;9.10;;
70729;SDS011;58315;53.336;55.932;2023-02-28T04:35:59;18.02;;;9.13;;
70729;SDS011;58315;53.336;55.932;2023-02-28T04:38:32;21.25;;;9.27;;
70729;SDS011;58315;53.336;55.932;2023-02-28T04:40:59;20.02;;;8.50;;
70729;SDS011;58315;53.336;55.932;2023-02-28T04:43:34;25.75;;;9.38;;
70729;SDS011;58315;53.336;55.932;2023-02-28T04:46:01;17.10;;;8.48;;
70729;SDS011;58315;53.336;55.932;2023-02-28T04:48:29;16.05;;;8.63;;
70729;SDS011;58315;53.336;55.932;2023-02-28T04:51:03;20.25;;;9.32;;
70729;SDS011;58315;53.336;55.932;2023-02-28T04:53:37;27.25;;;11.00;;
70729;SDS011;58315;53.336;55.932;2023-02-28T04:56:13;32.13;;;11.45;;
70729;SDS011;58315;53.336;55.932;2023-02-28T04:58:54;28.92;;;8.30;;
70729;SDS011;58315;53.336;55.932;2023-02-28T05:03:48;21.67;;;8.65;;
70729;SDS011;58315;53.336;55.932;2023-02-28T05:06:15;17.77;;;7.72;;
70729;SDS011;58315;53.336;55.932;2023-02-28T05:08:41;15.57;;;6.97;;
70729;SDS011;58315;53.336;55.932;2023-02-28T05:11:12;13.05;;;5.35;;
70729;SDS011;58315;53.336;55.932;2023-02-28T05:13:42;15.57;;;7.30;;
70729;SDS011;58315;53.336;55.932;2023-02-28T05:16:12;13.52;;;6.57;;
70729;SDS011;58315;53.336;55.932;2023-02-28T05:18:38;10.32;;;4.28;;
70729;SDS011;58315;53.336;55.932;2023-02-28T05:21:05;10.52;;;4.97;;
70729;SDS011;58315;53.336;55.932;2023-02-28T05:23:31;11.93;;;4.43;;
70729;SDS011;58315;53.336;55.932;2023-02-28T05:25:57;13.82;;;5.75;;
70729;SDS011;58315;53.336;55.932;2023-02-28T05:28:24;19.58;;;6.32;;
70729;SDS011;58315;53.336;55.932;2023-02-28T05:30:49;15.52;;;6.28;;
70729;SDS011;58315;53.336;55.932;2023-02-28T05:33:15;29.60;;;7.93;;
70729;SDS011;58315;53.336;55.932;2023-02-28T05:35:44;26.27;;;9.10;;
70729;SDS011;58315;53.336;55.932;2023-02-28T05:38:13;26.30;;;8.68;;
70729;SDS011;58315;53.336;55.932;2023-02-28T05:40:42;28.77;;;8.32;;
70729;SDS011;58315;53.336;55.932;2023-02-28T05:43:09;21.40;;;8.18;;
70729;SDS011;58315;53.336;55.932;2023-02-28T05:45:37;17.55;;;6.70;;
70729;SDS011;58315;53.336;55.932;2023-02-28T05:48:03;22.08;;;6.35;;
70729;SDS011;58315;53.336;55.932;2023-02-28T05:50:47;20.38;;;6.38;;
70729;SDS011;58315;53.336;55.932;2023-02-28T05:53:13;28.98;;;7.55;;
70729;SDS011;58315;53.336;55.932;2023-02-28T05:55:39;16.77;;;6.07;;
70729;SDS011;58315;53.336;55.932;2023-02-28T05:58:06;20.40;;;5.68;;
70729;SDS011;58315;53.336;55.932;2023-02-28T06:00:32;10.02;;;4.35;;
70729;SDS011;58315;53.336;55.932;2023-02-28T06:02:58;11.27;;;4.75;;
70729;SDS011;58315;53.336;55.932;2023-02-28T06:05:27;11.35;;;4.47;;
70729;SDS011;58315;53.336;55.932;2023-02-28T06:07:53;9.77;;;3.58;;
70729;SDS011;58315;53.336;55.932;2023-02-28T06:10:19;7.63;;;3.72;;
70729;SDS011;58315;53.336;55.932;2023-02-28T06:12:45;13.75;;;4.43;;
70729;SDS011;58315;53.336;55.932;2023-02-28T06:15:12;10.30;;;4.45;;
70729;SDS011;58315;53.336;55.932;2023-02-28T06:17:40;9.75;;;3.40;;
70729;SDS011;58315;53.336;55.932;2023-02-28T06:20:10;4.68;;;2.35;;
70729;SDS011;58315;53.336;55.932;2023-02-28T06:22:38;6.13;;;2.38;;
70729;SDS011;58315;53.336;55.932;2023-02-28T06:25:05;4.55;;;2.38;;
70729;SDS011;58315;53.336;55.932;2023-02-28T06:27:32;5.03;;;2.63;;
70729;SDS011;58315;53.336;55.932;2023-02-28T06:29:59;7.55;;;2.95;;
70729;SDS011;58315;53.336;55.932;2023-02-28T06:32:25;11.70;;;4.50;;
70729;SDS011;58315;53.336;55.932;2023-02-28T06:34:54;6.57;;;2.97;;
70729;SDS011;58315;53.336;55.932;2023-02-28T06:37:20;8.25;;;2.85;;
70729;SDS011;58315;53.336;55.932;2023-02-28T06:39:46;4.72;;;2.38;;
70729;SDS011;58315;53.336;55.932;2023-02-28T06:42:12;6.53;;;1.80;;
70729;SDS011;58315;53.336;55.932;2023-02-28T06:44:41;6.95;;;2.50;;
70729;SDS011;58315;53.336;55.932;2023-02-28T06:47:11;7.75;;;2.55;;
70729;SDS011;58315;53.336;55.932;2023-02-28T06:49:36;6.38;;;3.00;;
70729;SDS011;58315;53.336;55.932;2023-02-28T06:52:04;9.00;;;2.95;;
70729;SDS011;58315;53.336;55.932;2023-02-28T06:54:31;7.45;;;3.03;;
70729;SDS011;58315;53.336;55.932;2023-02-28T06:56:57;7.53;;;2.63;;
70729;SDS011;58315;53.336;55.932;2023-02-28T06:59:26;7.87;;;3.13;;
70729;SDS011;58315;53.336;55.932;2023-02-28T07:01:52;6.85;;;2.60;;
70729;SDS011;58315;53.336;55.932;2023-02-28T07:04:21;5.82;;;3.10;;
70729;SDS011;58315;53.336;55.932;2023-02-28T07:06:51;9.13;;;3.60;;
70729;SDS011;58315;53.336;55.932;2023-02-28T07:09:16;4.55;;;2.28;;
70729;SDS011;58315;53.336;55.932;2023-02-28T07:11:44;6.32;;;2.78;;
70729;SDS011;58315;53.336;55.932;2023-02-28T07:14:10;4.05;;;2.42;;
70729;SDS011;58315;53.336;55.932;2023-02-28T07:16:36;5.00;;;2.67;;
70729;SDS011;58315;53.336;55.932;2023-02-28T07:19:02;6.93;;;2.85;;
70729;SDS011;58315;53.336;55.932;2023-02-28T07:21:28;7.63;;;3.35;;
70729;SDS011;58315;53.336;55.932;2023-02-28T07:23:55;5.05;;;2.58;;
70729;SDS011;58315;53.336;55.932;2023-02-28T07:26:22;8.45;;;3.88;;
70729;SDS011;58315;53.336;55.932;2023-02-28T07:28:48;9.05;;;4.43;;
70729;SDS011;58315;53.336;55.932;2023-02-28T07:31:16;10.60;;;3.70;;
70729;SDS011;58315;53.336;55.932;2023-02-28T07:33:42;10.85;;;4.07;;
70729;SDS011;58315;53.336;55.932;2023-02-28T07:36:09;9.55;;;2.75;;
70729;SDS011;58315;53.336;55.932;2023-02-28T07:38:44;13.00;;;2.97;;
70729;SDS011;58315;53.336;55.932;2023-02-28T07:41:14;7.40;;;2.75;;
70729;SDS011;58315;53.336;55.932;2023-02-28T07:43:42;5.55;;;3.13;;
70729;SDS011;58315;53.336;55.932;2023-02-28T07:46:09;10.73;;;3.10;;
70729;SDS011;58315;53.336;55.932;2023-02-28T07:48:38;6.10;;;3.03;;
70729;SDS011;58315;53.336;55.932;2023-02-28T07:51:04;6.30;;;2.83;;
70729;SDS011;58315;53.336;55.932;2023-02-28T07:53:30;5.43;;;2.58;;
70729;SDS011;58315;53.336;55.932;2023-02-28T07:55:57;5.05;;;2.78;;
70729;SDS011;58315;53.336;55.932;2023-02-28T07:58:25;6.07;;;2.55;;
70729;SDS011;58315;53.336;55.932;2023-02-28T08:00:52;7.32;;;3.03;;
70729;SDS011;58315;53.336;55.932;2023-02-28T08:03:19;8.82;;;2.80;;
70729;SDS011;58315;53.336;55.932;2023-02-28T08:05:45;10.10;;;4.05;;
70729;SDS011;58315;53.336;55.932;2023-02-28T08:08:12;6.90;;;3.25;;
70729;SDS011;58315;53.336;55.932;2023-02-28T08:10:37;7.30;;;4.05;;
70729;SDS011;58315;53.336;55.932;2023-02-28T08:13:03;13.65;;;5.15;;
70729;SDS011;58315;53.336;55.932;2023-02-28T08:15:29;8.63;;;3.33;;
70729;SDS011;58315;53.336;55.932;2023-02-28T08:17:56;13.00;;;5.40;;
70729;SDS011;58315;53.336;55.932;2023-02-28T08:20:25;11.55;;;4.93;;
70729;SDS011;58315;53.336;55.932;2023-02-28T08:22:54;11.13;;;3.92;;
70729;SDS011;58315;53.336;55.932;2023-02-28T08:25:20;10.73;;;3.85;;
70729;SDS011;58315;53.336;55.932;2023-02-28T08:27:46;5.63;;;2.85;;
70729;SDS011;58315;53.336;55.932;2023-02-28T08:30:13;6.40;;;2.88;;
70729;SDS011;58315;53.336;55.932;2023-02-28T08:32:40;6.80;;;3.08;;
70729;SDS011;58315;53.336;55.932;2023-02-28T08:35:09;6.00;;;3.08;;
70729;SDS011;58315;53.336;55.932;2023-02-28T08:37:38;8.63;;;3.50;;
70729;SDS011;58315;53.336;55.932;2023-02-28T08:40:04;5.80;;;3.03;;
70729;SDS011;58315;53.336;55.932;2023-02-28T08:42:31;5.65;;;3.03;;
70729;SDS011;58315;53.336;55.932;2023-02-28T08:44:58;6.82;;;2.65;;
70729;SDS011;58315;53.336;55.932;2023-02-28T08:47:24;5.05;;;2.42;;
70729;SDS011;58315;53.336;55.932;2023-02-28T08:49:50;10.30;;;3.28;;
70729;SDS011;58315;53.336;55.932;2023-02-28T08:52:16;7.07;;;3.05;;
70729;SDS011;58315;53.336;55.932;2023-02-28T08:54:42;8.23;;;2.88;;
70729;SDS011;58315;53.336;55.932;2023-02-28T08:57:08;6.47;;;3.00;;
70729;SDS011;58315;53.336;55.932;2023-02-28T08:59:34;5.20;;;2.92;;
70729;SDS011;58315;53.336;55.932;2023-02-28T09:02:00;10.77;;;3.22;;
70729;SDS011;58315;53.336;55.932;2023-02-28T09:04:26;7.53;;;3.67;;
70729;SDS011;58315;53.336;55.932;2023-02-28T09:06:52;5.15;;;2.90;;
70729;SDS011;58315;53.336;55.932;2023-02-28T09:09:18;5.47;;;3.03;;
70729;SDS011;58315;53.336;55.932;2023-02-28T09:11:44;5.90;;;3.50;;
70729;SDS011;58315;53.336;55.932;2023-02-28T09:14:10;7.75;;;3.40;;
70729;SDS011;58315;53.336;55.932;2023-02-28T09:16:36;7.68;;;3.65;;
70729;SDS011;58315;53.336;55.932;2023-02-28T09:19:02;6.63;;;3.20;;
70729;SDS011;58315;53.336;55.932;2023-02-28T09:21:31;6.18;;;3.33;;
70729;SDS011;58315;53.336;55.932;2023-02-28T09:23:57;5.35;;;2.72;;
70729;SDS011;58315;53.336;55.932;2023-02-28T09:26:24;10.93;;;3.42;;
70729;SDS011;58315;53.336;55.932;2023-02-28T09:28:52;8.15;;;3.20;;
70729;SDS011;58315;53.336;55.932;2023-02-28T09:31:23;6.15;;;2.97;;
70729;SDS011;58315;53.336;55.932;2023-02-28T09:33:54;6.28;;;3.10;;
70729;SDS011;58315;53.336;55.932;2023-02-28T09:36:23;5.13;;;2.72;;
70729;SDS011;58315;53.336;55.932;2023-02-28T09:38:49;7.97;;;3.88;;
70729;SDS011;58315;53.336;55.932;2023-02-28T09:41:37;7.65;;;3.70;;
70729;SDS011;58315;53.336;55.932;2023-02-28T09:53:02;7.63;;;3.35;;
70729;SDS011;58315;53.336;55.932;2023-02-28T09:58:30;7.43;;;3.40;;
70729;SDS011;58315;53.336;55.932;2023-02-28T10:01:12;6.38;;;3.45;;
70729;SDS011;58315;53.336;55.932;2023-02-28T10:03:52;5.93;;;3.13;;
70729;SDS011;58315;53.336;55.932;2023-02-28T10:06:26;10.68;;;3.33;;
70729;SDS011;58315;53.336;55.932;2023-02-28T10:09:09;5.63;;;2.88;;
70729;SDS011;58315;53.336;55.932;2023-02-28T10:11:40;6.10;;;3.30;;
70729;SDS011;58315;53.336;55.932;2023-02-28T10:14:26;6.13;;;3.53;;
70729;SDS011;58315;53.336;55.932;2023-02-28T10:16:55;6.57;;;3.08;;
70729;SDS011;58315;53.336;55.932;2023-02-28T10:22:00;4.88;;;2.63;;
70729;SDS011;58315;53.336;55.932;2023-02-28T10:24:32;7.38;;;3.53;;
70729;SDS011;58315;53.336;55.932;2023-02-28T10:27:12;7.55;;;3.60;;
70729;SDS011;58315;53.336;55.932;2023-02-28T10:29:48;5.50;;;2.75;;
70729;SDS011;58315;53.336;55.932;2023-02-28T10:32:34;8.90;;;3.55;;
70729;SDS011;58315;53.336;55.932;2023-02-28T10:35:10;5.95;;;2.75;;
70729;SDS011;58315;53.336;55.932;2023-02-28T10:37:40;8.18;;;3.95;;
70729;SDS011;58315;53.336;55.932;2023-02-28T10:43:01;5.18;;;3.13;;
70729;SDS011;58315;53.336;55.932;2023-02-28T10:51:04;8.43;;;4.10;;
70729;SDS011;58315;53.336;55.932;2023-02-28T10:56:18;6.15;;;3.10;;
70729;SDS011;58315;53.336;55.932;2023-02-28T10:58:57;5.38;;;2.85;;
70729;SDS011;58315;53.336;55.932;2023-02-28T11:01:35;5.13;;;2.75;;
70729;SDS011;58315;53.336;55.932;2023-02-28T11:04:19;7.45;;;3.30;;
70729;SDS011;58315;53.336;55.932;2023-02-28T11:06:47;6.38;;;3.10;;
70729;SDS011;58315;53.336;55.932;2023-02-28T11:09:24;7.60;;;2.92;;
70729;SDS011;58315;53.336;55.932;2023-02-28T11:12:00;6.45;;;3.10;;
70729;SDS011;58315;53.336;55.932;2023-02-28T11:14:35;6.35;;;3.05;;
70729;SDS011;58315;53.336;55.932;2023-02-28T11:17:23;5.80;;;3.10;;
70729;SDS011;58315;53.336;55.932;2023-02-28T11:19:52;6.45;;;3.33;;
70729;SDS011;58315;53.336;55.932;2023-02-28T11:22:31;6.78;;;3.50;;
70729;SDS011;58315;53.336;55.932;2023-02-28T11:25:26;6.32;;;3.17;;
70729;SDS011;58315;53.336;55.932;2023-02-28T11:28:00;5.53;;;2.90;;
70729;SDS011;58315;53.336;55.932;2023-02-28T11:30:40;6.85;;;3.13;;
70729;SDS011;58315;53.336;55.932;2023-02-28T11:36:03;7.15;;;3.60;;
70729;SDS011;58315;53.336;55.932;2023-02-28T11:38:35;6.47;;;2.95;;
70729;SDS011;58315;53.336;55.932;2023-02-28T11:41:09;4.93;;;2.78;;
70729;SDS011;58315;53.336;55.932;2023-02-28T11:44:26;5.57;;;2.65;;
70729;SDS011;58315;53.336;55.932;2023-02-28T11:47:04;5.78;;;2.50;;
70729;SDS011;58315;53.336;55.932;2023-02-28T11:52:22;6.05;;;2.88;;
70729;SDS011;58315;53.336;55.932;2023-02-28T12:11:29;5.40;;;3.05;;
70729;SDS011;58315;53.336;55.932;2023-02-28T12:25:59;6.25;;;3.30;;
70729;SDS011;58315;53.336;55.932;2023-02-28T12:28:51;7.10;;;3.13;;
70729;SDS011;58315;53.336;55.932;2023-02-28T12:31:43;7.18;;;3.17;;
70729;SDS011;58315;53.336;55.932;2023-02-28T12:34:16;5.28;;;2.55;;
70729;SDS011;58315;53.336;55.932;2023-02-28T12:36:46;5.68;;;2.38;;
70729;SDS011;58315;53.336;55.932;2023-02-28T12:39:18;6.03;;;2.80;;
70729;SDS011;58315;53.336;55.932;2023-02-28T12:41:53;5.30;;;3.20;;
70729;SDS011;58315;53.336;55.932;2023-02-28T12:47:01;5.00;;;2.92;;
70729;SDS011;58315;53.336;55.932;2023-02-28T12:49:32;4.28;;;2.58;;
70729;SDS011;58315;53.336;55.932;2023-02-28T12:52:04;8.05;;;2.83;;
70729;SDS011;58315;53.336;55.932;2023-02-28T12:54:34;8.05;;;3.08;;
70729;SDS011;58315;53.336;55.932;2023-02-28T12:59:45;5.65;;;2.63;;
70729;SDS011;58315;53.336;55.932;2023-02-28T13:02:27;5.32;;;2.47;;
70729;SDS011;58315;53.336;55.932;2023-02-28T13:08:29;6.88;;;3.22;;
70729;SDS011;58315;53.336;55.932;2023-02-28T13:10:53;9.68;;;3.83;;
70729;SDS011;58315;53.336;55.932;2023-02-28T13:13:21;7.78;;;3.60;;
70729;SDS011;58315;53.336;55.932;2023-02-28T13:18:29;8.57;;;3.97;;
70729;SDS011;58315;53.336;55.932;2023-02-28T13:21:24;7.65;;;3.30;;
70729;SDS011;58315;53.336;55.932;2023-02-28T13:27:10;6.38;;;3.55;;
70729;SDS011;58315;53.336;55.932;2023-02-28T13:34:36;8.73;;;3.58;;
70729;SDS011;58315;53.336;55.932;2023-02-28T13:39:58;7.55;;;3.90;;
70729;SDS011;58315;53.336;55.932;2023-02-28T13:42:51;8.27;;;3.90;;
70729;SDS011;58315;53.336;55.932;2023-02-28T13:45:22;7.88;;;3.88;;
70729;SDS011;58315;53.336;55.932;2023-02-28T13:58:43;9.57;;;4.63;;
70729;SDS011;58315;53.336;55.932;2023-02-28T14:04:04;9.07;;;4.22;;
70729;SDS011;58315;53.336;55.932;2023-02-28T14:06:51;9.90;;;4.57;;
70729;SDS011;58315;53.336;55.932;2023-02-28T14:15:27;8.95;;;3.72;;
70729;SDS011;58315;53.336;55.932;2023-02-28T14:20:57;9.73;;;4.55;;
70729;SDS011;58315;53.336;55.932;2023-02-28T14:35:20;10.27;;;4.20;;
70729;SDS011;58315;53.336;55.932;2023-02-28T14:38:06;7.70;;;3.92;;
70729;SDS011;58315;53.336;55.932;2023-02-28T14:40:39;8.35;;;4.80;;
70729;SDS011;58315;53.336;55.932;2023-02-28T14:43:15;10.13;;;4.55;;
70729;SDS011;58315;53.336;55.932;2023-02-28T14:45:53;9.38;;;4.93;;
70729;SDS011;58315;53.336;55.932;2023-02-28T14:48:22;10.30;;;5.30;;
70729;SDS011;58315;53.336;55.932;2023-02-28T14:50:57;9.48;;;4.47;;
70729;SDS011;58315;53.336;55.932;2023-02-28T14:53:26;9.07;;;4.90;;
70729;SDS011;58315;53.336;55.932;2023-02-28T14:55:55;7.20;;;4.57;;
70729;SDS011;58315;53.336;55.932;2023-02-28T14:58:26;11.02;;;5.47;;
70729;SDS011;58315;53.336;55.932;2023-02-28T15:00:55;11.85;;;5.53;;
70729;SDS011;58315;53.336;55.932;2023-02-28T15:03:36;14.82;;;5.35;;
70729;SDS011;58315;53.336;55.932;2023-02-28T15:06:04;13.48;;;5.47;;
70729;SDS011;58315;53.336;55.932;2023-02-28T15:08:37;15.68;;;6.22;;
70729;SDS011;58315;53.336;55.932;2023-02-28T15:11:04;13.23;;;6.35;;
70729;SDS011;58315;53.336;55.932;2023-02-28T15:13:38;14.10;;;6.03;;
70729;SDS011;58315;53.336;55.932;2023-02-28T15:16:11;13.15;;;6.47;;
70729;SDS011;58315;53.336;55.932;2023-02-28T15:18:46;13.98;;;6.40;;
70729;SDS011;58315;53.336;55.932;2023-02-28T15:21:18;11.43;;;5.85;;
70729;SDS011;58315;53.336;55.932;2023-02-28T15:23:52;12.50;;;6.03;;
70729;SDS011;58315;53.336;55.932;2023-02-28T15:26:33;12.50;;;6.30;;
70729;SDS011;58315;53.336;55.932;2023-02-28T15:29:16;9.40;;;4.35;;
70729;SDS011;58315;53.336;55.932;2023-02-28T15:31:47;12.88;;;5.60;;
70729;SDS011;58315;53.336;55.932;2023-02-28T15:34:18;15.98;;;5.93;;
70729;SDS011;58315;53.336;55.932;2023-02-28T15:36:47;15.43;;;7.95;;
70729;SDS011;58315;53.336;55.932;2023-02-28T15:39:23;15.60;;;6.30;;
70729;SDS011;58315;53.336;55.932;2023-02-28T15:44:43;14.15;;;6.38;;
70729;SDS011;58315;53.336;55.932;2023-02-28T15:47:17;17.88;;;6.80;;
70729;SDS011;58315;53.336;55.932;2023-02-28T15:49:52;15.52;;;6.38;;
70729;SDS011;58315;53.336;55.932;2023-02-28T15:52:21;18.63;;;7.25;;
70729;SDS011;58315;53.336;55.932;2023-02-28T15:55:19;12.63;;;6.13;;
70729;SDS011;58315;53.336;55.932;2023-02-28T15:57:48;13.10;;;5.85;;
70729;SDS011;58315;53.336;55.932;2023-02-28T16:00:19;15.00;;;6.97;;
70729;SDS011;58315;53.336;55.932;2023-02-28T16:02:48;14.52;;;6.50;;
70729;SDS011;58315;53.336;55.932;2023-02-28T16:05:26;9.65;;;4.55;;
70729;SDS011;58315;53.336;55.932;2023-02-28T16:07:58;14.65;;;6.15;;
70729;SDS011;58315;53.336;55.932;2023-02-28T16:10:27;8.88;;;5.25;;
70729;SDS011;58315;53.336;55.932;2023-02-28T16:12:55;9.25;;;5.25;;
70729;SDS011;58315;53.336;55.932;2023-02-28T16:15:26;8.38;;;3.58;;
70729;SDS011;58315;53.336;55.932;2023-02-28T16:17:55;11.27;;;5.22;;
70729;SDS011;58315;53.336;55.932;2023-02-28T16:22:53;7.50;;;4.25;;
70729;SDS011;58315;53.336;55.932;2023-02-28T16:25:24;6.97;;;3.80;;
70729;SDS011;58315;53.336;55.932;2023-02-28T16:27:58;8.30;;;4.10;;
70729;SDS011;58315;53.336;55.932;2023-02-28T16:30:26;8.63;;;4.68;;
70729;SDS011;58315;53.336;55.932;2023-02-28T16:32:54;8.73;;;4.18;;
70729;SDS011;58315;53.336;55.932;2023-02-28T16:35:21;12.45;;;4.18;;
70729;SDS011;58315;53.336;55.932;2023-02-28T16:37:50;6.57;;;4.00;;
70729;SDS011;58315;53.336;55.932;2023-02-28T16:40:24;7.60;;;4.35;;
70729;SDS011;58315;53.336;55.932;2023-02-28T16:42:55;5.80;;;3.70;;
70729;SDS011;58315;53.336;55.932;2023-02-28T16:45:25;6.53;;;3.55;;
70729;SDS011;58315;53.336;55.932;2023-02-28T16:47:53;5.70;;;2.83;;
70729;SDS011;58315;53.336;55.932;2023-02-28T16:50:21;8.57;;;4.35;;
70729;SDS011;58315;53.336;55.932;2023-02-28T16:52:49;7.90;;;3.88;;
70729;SDS011;58315;53.336;55.932;2023-02-28T16:55:18;7.72;;;3.70;;
70729;SDS011;58315;53.336;55.932;2023-02-28T16:58:00;9.18;;;4.20;;
70729;SDS011;58315;53.336;55.932;2023-02-28T17:00:27;6.15;;;3.25;;
70729;SDS011;58315;53.336;55.932;2023-02-28T17:02:56;3.50;;;2.30;;
70729;SDS011;58315;53.336;55.932;2023-02-28T17:05:24;6.63;;;3.15;;
70729;SDS011;58315;53.336;55.932;2023-02-28T17:07:52;10.52;;;3.22;;
70729;SDS011;58315;53.336;55.932;2023-02-28T17:10:19;4.22;;;2.50;;
70729;SDS011;58315;53.336;55.932;2023-02-28T17:12:47;7.25;;;2.78;;
70729;SDS011;58315;53.336;55.932;2023-02-28T17:15:17;5.97;;;2.80;;
70729;SDS011;58315;53.336;55.932;2023-02-28T17:18:04;3.78;;;2.30;;
70729;SDS011;58315;53.336;55.932;2023-02-28T17:20:31;4.05;;;2.05;;
70729;SDS011;58315;53.336;55.932;2023-02-28T17:22:57;5.10;;;2.03;;
70729;SDS011;58315;53.336;55.932;2023-02-28T17:25:26;5.30;;;2.67;;
70729;SDS011;58315;53.336;55.932;2023-02-28T17:27:52;4.05;;;1.77;;
70729;SDS011;58315;53.336;55.932;2023-02-28T17:30:23;4.20;;;2.15;;
70729;SDS011;58315;53.336;55.932;2023-02-28T17:32:53;3.70;;;2.05;;
70729;SDS011;58315;53.336;55.932;2023-02-28T17:35:22;13.65;;;2.80;;
70729;SDS011;58315;53.336;55.932;2023-02-28T17:37:49;3.58;;;2.30;;